createdAt,value
2023-04-04T00:09:47.311Z,1.43
2023-04-04T00:20:09.332Z,1.48
2023-04-04T00:30:31.498Z,1.47
2023-04-04T00:40:52.767Z,1.46
2023-04-04T00:51:13.927Z,1.48
2023-04-04T01:01:37.156Z,1.46
2023-04-04T01:11:59.166Z,1.47
2023-04-04T01:22:23.517Z,1.41
2023-04-04T01:33:08.375Z,1.46
2023-04-04T01:43:33.158Z,1.47
2023-04-04T01:53:56.892Z,1.43
2023-04-04T02:04:18.513Z,1.40
2023-04-04T02:14:40.805Z,1.38
2023-04-04T02:25:02.938Z,1.33
2023-04-04T02:35:24.017Z,1.32
2023-04-04T02:45:49.068Z,1.27
2023-04-04T02:56:22.144Z,1.26
2023-04-04T03:06:43.917Z,1.18
2023-04-04T03:17:05.448Z,1.23
2023-04-04T03:27:26.697Z,1.12
2023-04-04T03:37:48.186Z,1.16
2023-04-04T03:48:11.260Z,1.21
2023-04-04T03:58:36.668Z,1.01
2023-04-04T04:08:58.509Z,1.02
2023-04-04T04:19:20.437Z,1.04
2023-04-04T04:29:42.851Z,1.10
2023-04-04T04:40:06.511Z,1.16
2023-04-04T04:50:50.663Z,1.19
2023-04-04T05:01:22.384Z,1.26
2023-04-04T05:11:44.454Z,1.28
2023-04-04T05:22:08.151Z,1.40
2023-04-04T05:32:40.596Z,1.39
2023-04-04T05:43:09.427Z,1.37
2023-04-04T05:53:42.073Z,1.23
2023-04-04T06:04:04.004Z,1.38
2023-04-04T06:14:25.615Z,1.50
2023-04-04T06:24:47.178Z,1.54
2023-04-04T06:35:09.536Z,1.58
2023-04-04T06:45:37.730Z,1.46
2023-04-04T06:55:59.303Z,1.53
2023-04-04T07:06:26.714Z,1.57
2023-04-04T07:16:48.357Z,1.74
2023-04-04T07:27:09.541Z,1.74
2023-04-04T07:37:30.816Z,1.92
2023-04-04T07:47:52.250Z,1.86
2023-04-04T07:58:13.649Z,1.92
2023-04-04T08:08:35.600Z,1.84
2023-04-04T08:18:58.838Z,2.07
2023-04-04T08:29:21.317Z,2.17
2023-04-04T08:39:42.830Z,2.10
2023-04-04T08:50:06.896Z,2.00
2023-04-04T09:00:28.103Z,2.21
2023-04-04T09:10:51.084Z,2.40
2023-04-04T09:21:13.583Z,3.21
2023-04-04T09:31:34.956Z,3.17
2023-04-04T09:41:57.907Z,3.43
2023-04-04T09:52:21.123Z,3.38
2023-04-04T10:02:48.261Z,3.37
2023-04-04T10:13:11.809Z,3.51
2023-04-04T10:23:34.724Z,3.68
2023-04-04T10:34:14.072Z,3.83
2023-04-04T10:44:41.558Z,4.04
2023-04-04T10:55:06.687Z,4.05
2023-04-04T11:05:47.358Z,4.31
2023-04-04T11:16:15.802Z,4.53
2023-04-04T11:26:39.615Z,4.47
2023-04-04T11:37:19.911Z,4.47
2023-04-04T11:47:47.555Z,4.56
2023-04-04T11:58:14.465Z,4.59
2023-04-04T12:08:35.904Z,4.55
2023-04-04T12:19:01.994Z,4.95
2023-04-04T12:29:26.160Z,4.75
2023-04-04T12:39:49.777Z,4.81
2023-04-04T12:50:24.777Z,4.99
2023-04-04T13:00:46.318Z,5.14
2023-04-04T13:11:07.803Z,5.27
2023-04-04T13:21:30.151Z,5.33
2023-04-04T13:31:53.382Z,5.33
2023-04-04T13:42:14.553Z,5.30
2023-04-04T13:52:35.611Z,5.12
2023-04-04T14:02:58.344Z,5.03
2023-04-04T14:13:20.168Z,5.04
2023-04-04T14:23:41.355Z,4.92
2023-04-04T14:34:04.379Z,4.89
2023-04-04T14:44:26.043Z,4.71
2023-04-04T14:54:48.506Z,4.67
2023-04-04T15:05:10.549Z,4.66
2023-04-04T15:15:32.800Z,4.59
2023-04-04T15:25:54.101Z,4.55
2023-04-04T15:36:15.572Z,4.51
2023-04-04T15:46:36.689Z,4.47
2023-04-04T15:56:57.906Z,4.42
2023-04-04T16:07:19.289Z,4.40
2023-04-04T16:17:40.659Z,4.36
2023-04-04T16:28:02.419Z,4.32
2023-04-04T16:38:24.228Z,4.28
2023-04-04T16:48:45.746Z,4.24
2023-04-04T16:59:07.057Z,4.10
2023-04-04T17:09:29.029Z,3.95
2023-04-04T17:19:50.362Z,3.85
2023-04-04T17:30:12.883Z,3.75
2023-04-04T17:40:36.462Z,3.67
2023-04-04T17:50:58.467Z,3.57
2023-04-04T18:01:20.743Z,3.52
2023-04-04T18:11:42.028Z,3.47
2023-04-04T18:22:04.053Z,3.44
2023-04-04T18:32:26.645Z,3.42
2023-04-04T18:42:48.400Z,3.41
2023-04-04T18:53:09.801Z,3.34
2023-04-04T19:03:41.914Z,3.31
2023-04-04T19:14:03.753Z,3.18
2023-04-04T19:24:25.409Z,3.15
2023-04-04T19:35:59.884Z,3.08
2023-04-04T19:46:32.694Z,3.07
2023-04-04T19:57:07.735Z,3.09
2023-04-04T20:07:29.242Z,3.14
2023-04-04T20:17:50.734Z,3.15
2023-04-04T20:28:30.136Z,3.09
2023-04-04T20:38:51.302Z,3.10
2023-04-04T20:49:19.842Z,2.98
2023-04-04T20:59:43.329Z,2.94
2023-04-04T21:10:22.648Z,2.93
2023-04-04T21:20:47.126Z,2.94
2023-04-04T21:31:17.878Z,2.99
2023-04-04T21:41:45.415Z,2.98
2023-04-04T21:52:06.985Z,2.97
2023-04-04T22:02:30.086Z,2.94
2023-04-04T22:12:51.929Z,2.92
2023-04-04T22:23:15.669Z,2.93
2023-04-04T22:33:36.935Z,2.93
2023-04-04T22:43:59.058Z,2.99
2023-04-04T22:54:20.831Z,2.97
2023-04-04T23:04:42.239Z,2.96
2023-04-04T23:15:05.384Z,2.96
2023-04-04T23:25:26.987Z,2.94
2023-04-04T23:35:48.541Z,2.96
2023-04-04T23:46:14.588Z,2.93
2023-04-04T23:56:37.126Z,2.92
